VIR117F EGLL-KMIA
Flight info
| Callsign | VIR117F |
|---|---|
| Flight time | N/A |
| Altitude | 24000 |
| Route | CPT L9 KITFE/N0487F360 L9 TIGWE DCT FELCA DCT NICXI DCT OFSOX DCT BANBA DCT ADARA/M085F360 DCT 5220N DCT 5230N DCT H5140 DCT 4950N DCT JOOPY/N0485F360 DCT NANSO/M085F380 DCT LOMPI M202 JEBBY DCT SELIM M203 JNFOX/M085F400 M203 SNAGY/N0486F400 BNFSH3 |
| Aircraft | A35K/H-SDE2E3GHIJ3J4J5LM1ORWXY/LB1D1 |
Departure
| Time | 2026-05-06 12:25 |
|---|---|
| Airport | London Heathrow Airport (EGLL) |
Arrival
| Time | N/A |
|---|---|
| Airport | Miami International Airport (KMIA) |
| Time | Latitude | Longitude | Altitude | Speed | Heading |
|---|---|---|---|---|---|
| 2026-05-06 11:05 | 51.46849 | -0.46350 | 92 ft | 0 kts | 56° |
| 2026-05-06 12:13 | 51.46845 | -0.46359 | 92 ft | 4 kts | 56° |
| 2026-05-06 12:13 | 51.46830 | -0.46395 | 92 ft | 4 kts | 56° |
| 2026-05-06 12:13 | 51.46818 | -0.46423 | 93 ft | 4 kts | 68° |
| 2026-05-06 12:13 | 51.46816 | -0.46461 | 94 ft | 4 kts | 122° |
| 2026-05-06 12:14 | 51.46833 | -0.46487 | 94 ft | 4 kts | 146° |
| 2026-05-06 12:14 | 51.46854 | -0.46510 | 92 ft | 2 kts | 146° |
| 2026-05-06 12:14 | 51.46855 | -0.46511 | 92 ft | 0 kts | 146° |
| 2026-05-06 12:16 | 51.46852 | -0.46508 | 92 ft | 4 kts | 146° |
| 2026-05-06 12:16 | 51.46797 | -0.46448 | 97 ft | 12 kts | 147° |
| 2026-05-06 12:16 | 51.46720 | -0.46417 | 97 ft | 12 kts | 174° |
| 2026-05-06 12:17 | 51.46657 | -0.46472 | 96 ft | 11 kts | 253° |
| 2026-05-06 12:17 | 51.46655 | -0.46603 | 93 ft | 12 kts | 273° |
| 2026-05-06 12:17 | 51.46658 | -0.46750 | 96 ft | 14 kts | 270° |
| 2026-05-06 12:17 | 51.46658 | -0.46913 | 94 ft | 15 kts | 270° |
| 2026-05-06 12:18 | 51.46656 | -0.47089 | 92 ft | 17 kts | 269° |
| 2026-05-06 12:18 | 51.46656 | -0.47282 | 95 ft | 18 kts | 270° |
| 2026-05-06 12:18 | 51.46656 | -0.47490 | 97 ft | 19 kts | 270° |
| 2026-05-06 12:18 | 51.46655 | -0.47710 | 95 ft | 20 kts | 270° |
| 2026-05-06 12:19 | 51.46655 | -0.47896 | 93 ft | 16 kts | 270° |
| 2026-05-06 12:19 | 51.46654 | -0.48051 | 94 ft | 13 kts | 269° |
| 2026-05-06 12:19 | 51.46653 | -0.48202 | 92 ft | 14 kts | 270° |
| 2026-05-06 12:19 | 51.46653 | -0.48368 | 92 ft | 16 kts | 269° |
| 2026-05-06 12:20 | 51.46652 | -0.48547 | 92 ft | 10 kts | 270° |
| 2026-05-06 12:20 | 51.46651 | -0.48662 | 92 ft | 8 kts | 270° |
| 2026-05-06 12:20 | 51.46645 | -0.48712 | 92 ft | 0 kts | 245° |
| 2026-05-06 12:23 | 51.46627 | -0.48744 | 97 ft | 10 kts | 218° |
| 2026-05-06 12:23 | 51.46555 | -0.48791 | 96 ft | 12 kts | 198° |
| 2026-05-06 12:24 | 51.46493 | -0.48791 | 96 ft | 7 kts | 136° |
| 2026-05-06 12:24 | 51.46480 | -0.48709 | 94 ft | 9 kts | 94° |
| 2026-05-06 12:24 | 51.46478 | -0.48536 | 95 ft | 36 kts | 90° |
| 2026-05-06 12:24 | 51.46483 | -0.47754 | 96 ft | 102 kts | 89° |
| 2026-05-06 12:25 | 51.46483 | -0.46295 | 95 ft | 157 kts | 89° |
| 2026-05-06 12:25 | 51.46479 | -0.44452 | 606 ft | 165 kts | 87° |
| 2026-05-06 12:25 | 51.46452 | -0.42634 | 1380 ft | 165 kts | 86° |
| 2026-05-06 12:25 | 51.46384 | -0.40679 | 1658 ft | 189 kts | 93° |
| 2026-05-06 12:26 | 51.45763 | -0.38643 | 1805 ft | 225 kts | 129° |
| 2026-05-06 12:26 | 51.44356 | -0.37238 | 2052 ft | 254 kts | 163° |
| 2026-05-06 12:26 | 51.42564 | -0.37120 | 2625 ft | 263 kts | 192° |
| 2026-05-06 12:26 | 51.40773 | -0.37924 | 3328 ft | 268 kts | 200° |
| 2026-05-06 12:27 | 51.39036 | -0.39065 | 4045 ft | 272 kts | 211° |
| 2026-05-06 12:27 | 51.37601 | -0.40964 | 4695 ft | 273 kts | 235° |
| 2026-05-06 12:27 | 51.36848 | -0.43673 | 5473 ft | 265 kts | 265° |
| 2026-05-06 12:27 | 51.37020 | -0.46547 | 6287 ft | 259 kts | 289° |
| 2026-05-06 12:28 | 51.37851 | -0.49068 | 7045 ft | 255 kts | 309° |
| 2026-05-06 12:28 | 51.38906 | -0.51380 | 7778 ft | 260 kts | 307° |
| 2026-05-06 12:28 | 51.39898 | -0.53843 | 8506 ft | 265 kts | 300° |
| 2026-05-06 12:28 | 51.40590 | -0.56614 | 9288 ft | 271 kts | 289° |
| 2026-05-06 12:29 | 51.41101 | -0.59541 | 10045 ft | 276 kts | 286° |
| 2026-05-06 12:29 | 51.41583 | -0.62602 | 10442 ft | 294 kts | 285° |
| 2026-05-06 12:29 | 51.42073 | -0.65860 | 10724 ft | 314 kts | 284° |
| 2026-05-06 12:29 | 51.42593 | -0.69366 | 11025 ft | 333 kts | 284° |
| 2026-05-06 12:30 | 51.43134 | -0.73068 | 11439 ft | 345 kts | 284° |
| 2026-05-06 12:30 | 51.43690 | -0.76876 | 11966 ft | 355 kts | 284° |
| 2026-05-06 12:30 | 51.44253 | -0.80753 | 12679 ft | 357 kts | 284° |
| 2026-05-06 12:30 | 51.44820 | -0.84666 | 13387 ft | 362 kts | 284° |
| 2026-05-06 12:31 | 51.45391 | -0.88619 | 14096 ft | 364 kts | 283° |
| 2026-05-06 12:31 | 51.45897 | -0.92578 | 14629 ft | 370 kts | 281° |
| 2026-05-06 12:31 | 51.46344 | -0.96658 | 15304 ft | 372 kts | 280° |
| 2026-05-06 12:31 | 51.46794 | -1.00780 | 15875 ft | 377 kts | 280° |
| 2026-05-06 12:32 | 51.47260 | -1.04957 | 16435 ft | 381 kts | 280° |
| 2026-05-06 12:32 | 51.47727 | -1.09136 | 17213 ft | 381 kts | 280° |
| 2026-05-06 12:32 | 51.48198 | -1.13352 | 17799 ft | 386 kts | 280° |
| 2026-05-06 12:32 | 51.48720 | -1.17573 | 18514 ft | 386 kts | 284° |
| 2026-05-06 12:33 | 51.49675 | -1.21627 | 19021 ft | 392 kts | 298° |
| 2026-05-06 12:33 | 51.51272 | -1.25181 | 19636 ft | 396 kts | 310° |
| 2026-05-06 12:33 | 51.53174 | -1.28424 | 20152 ft | 402 kts | 314° |
| 2026-05-06 12:33 | 51.55179 | -1.31494 | 20755 ft | 404 kts | 316° |
| 2026-05-06 12:34 | 51.57266 | -1.34549 | 21348 ft | 408 kts | 316° |
| 2026-05-06 12:34 | 51.59345 | -1.37688 | 21847 ft | 412 kts | 312° |
| 2026-05-06 12:34 | 51.61140 | -1.41302 | 22421 ft | 413 kts | 302° |
| 2026-05-06 12:34 | 51.62679 | -1.45215 | 23042 ft | 415 kts | 299° |
| 2026-05-06 12:35 | 51.64129 | -1.49290 | 23523 ft | 421 kts | 297° |
| 2026-05-06 12:35 | 51.65527 | -1.53453 | 23993 ft | 424 kts | 297° |
| 2026-05-06 12:35 | 51.66906 | -1.57676 | 24466 ft | 427 kts | 296° |
| 2026-05-06 12:35 | 51.68291 | -1.61942 | 24916 ft | 430 kts | 296° |
| 2026-05-06 12:36 | 51.69570 | -1.66302 | 25406 ft | 432 kts | 290° |
| 2026-05-06 12:36 | 51.70439 | -1.70881 | 25895 ft | 433 kts | 281° |
| 2026-05-06 12:36 | 51.70994 | -1.75667 | 26355 ft | 436 kts | 278° |
| 2026-05-06 12:36 | 51.71416 | -1.80528 | 26782 ft | 440 kts | 276° |
| 2026-05-06 12:37 | 51.71767 | -1.85438 | 27223 ft | 443 kts | 276° |
| 2026-05-06 12:37 | 51.72095 | -1.90388 | 27674 ft | 446 kts | 276° |
| 2026-05-06 12:37 | 51.72419 | -1.95384 | 28138 ft | 448 kts | 276° |
| 2026-05-06 12:37 | 51.72750 | -2.00404 | 28564 ft | 452 kts | 276° |
| 2026-05-06 12:38 | 51.73088 | -2.05451 | 28992 ft | 455 kts | 276° |
| 2026-05-06 12:38 | 51.73436 | -2.10551 | 29393 ft | 458 kts | 276° |
| 2026-05-06 12:38 | 51.73792 | -2.15669 | 29785 ft | 461 kts | 276° |
| 2026-05-06 12:38 | 51.74150 | -2.20825 | 30145 ft | 464 kts | 276° |
| 2026-05-06 12:39 | 51.74502 | -2.25955 | 30465 ft | 466 kts | 276° |
| 2026-05-06 12:39 | 51.74855 | -2.31161 | 30796 ft | 468 kts | 276° |
| 2026-05-06 12:39 | 51.75208 | -2.36393 | 31113 ft | 469 kts | 276° |
| 2026-05-06 12:39 | 51.75561 | -2.41646 | 31424 ft | 471 kts | 276° |
| 2026-05-06 12:40 | 51.75913 | -2.46890 | 31885 ft | 469 kts | 276° |
| 2026-05-06 12:40 | 51.76260 | -2.52101 | 32391 ft | 466 kts | 276° |
| 2026-05-06 12:40 | 51.76606 | -2.57307 | 32817 ft | 464 kts | 275° |
| 2026-05-06 12:40 | 51.76947 | -2.62486 | 33211 ft | 463 kts | 276° |
| 2026-05-06 12:41 | 51.77286 | -2.67658 | 33600 ft | 462 kts | 275° |
| 2026-05-06 12:41 | 51.77613 | -2.72755 | 33981 ft | 461 kts | 275° |
| 2026-05-06 12:41 | 51.77940 | -2.77901 | 34329 ft | 459 kts | 275° |
| 2026-05-06 12:41 | 51.78263 | -2.83032 | 34664 ft | 458 kts | 275° |
| 2026-05-06 12:42 | 51.78585 | -2.88150 | 34877 ft | 458 kts | 275° |
| 2026-05-06 12:42 | 51.78905 | -2.93288 | 35057 ft | 460 kts | 275° |
| 2026-05-06 12:42 | 51.79223 | -2.98420 | 35297 ft | 459 kts | 275° |
| 2026-05-06 12:42 | 51.79543 | -3.03557 | 35510 ft | 460 kts | 275° |
| 2026-05-06 12:43 | 51.79860 | -3.08709 | 35702 ft | 460 kts | 275° |
| 2026-05-06 12:43 | 51.80171 | -3.13805 | 35890 ft | 461 kts | 275° |
| 2026-05-06 12:43 | 51.80483 | -3.18964 | 36023 ft | 463 kts | 275° |
| 2026-05-06 12:43 | 51.80796 | -3.24168 | 36037 ft | 467 kts | 275° |
| 2026-05-06 12:44 | 51.81422 | -3.34678 | 36031 ft | 469 kts | 275° |
| 2026-05-06 12:44 | 51.82030 | -3.45103 | 36024 ft | 468 kts | 275° |
| 2026-05-06 12:45 | 51.82807 | -3.55554 | 36023 ft | 468 kts | 280° |
| 2026-05-06 12:46 | 51.84738 | -3.71054 | 36017 ft | 468 kts | 281° |
| 2026-05-06 12:46 | 51.86081 | -3.81378 | 36018 ft | 468 kts | 281° |
| 2026-05-06 12:47 | 51.87403 | -3.91633 | 36019 ft | 468 kts | 281° |
| 2026-05-06 12:47 | 51.88715 | -4.01966 | 36020 ft | 468 kts | 281° |
| 2026-05-06 12:48 | 51.90016 | -4.12309 | 36020 ft | 468 kts | 281° |
| 2026-05-06 12:48 | 51.91298 | -4.22580 | 36020 ft | 468 kts | 281° |
| 2026-05-06 12:49 | 51.92581 | -4.32925 | 36020 ft | 468 kts | 281° |
| 2026-05-06 12:49 | 51.93857 | -4.43288 | 36021 ft | 468 kts | 281° |
| 2026-05-06 12:50 | 51.95119 | -4.53642 | 36020 ft | 468 kts | 281° |
| 2026-05-06 12:50 | 51.96372 | -4.63997 | 36021 ft | 467 kts | 281° |
| 2026-05-06 12:51 | 51.97606 | -4.74263 | 36022 ft | 466 kts | 281° |
| 2026-05-06 12:51 | 51.98836 | -4.84593 | 36020 ft | 465 kts | 281° |
| 2026-05-06 12:52 | 52.00057 | -4.94918 | 36024 ft | 465 kts | 281° |
| 2026-05-06 12:52 | 52.01269 | -5.05240 | 36027 ft | 465 kts | 280° |
| 2026-05-06 12:53 | 52.02425 | -5.15508 | 36025 ft | 465 kts | 277° |
| 2026-05-06 12:53 | 52.02471 | -5.25990 | 36025 ft | 465 kts | 265° |
| 2026-05-06 12:54 | 52.01940 | -5.34705 | 36026 ft | 466 kts | 264° |
| 2026-05-06 12:54 | 52.01050 | -5.46847 | 36026 ft | 466 kts | 263° |
| 2026-05-06 12:55 | 52.00406 | -5.55533 | 36027 ft | 465 kts | 264° |
| 2026-05-06 12:55 | 51.99641 | -5.65993 | 36029 ft | 466 kts | 264° |
| 2026-05-06 12:56 | 51.98879 | -5.76435 | 36031 ft | 466 kts | 264° |
| 2026-05-06 12:56 | 51.98114 | -5.86807 | 36031 ft | 466 kts | 264° |
| 2026-05-06 12:57 | 51.97329 | -5.97253 | 36034 ft | 466 kts | 263° |
| 2026-05-06 12:57 | 51.96535 | -6.07706 | 36034 ft | 466 kts | 263° |
| 2026-05-06 12:58 | 51.95738 | -6.18074 | 36034 ft | 466 kts | 263° |
| 2026-05-06 12:58 | 51.95232 | -6.28548 | 36034 ft | 465 kts | 268° |
| 2026-05-06 12:59 | 51.95036 | -6.39072 | 36033 ft | 465 kts | 269° |
| 2026-05-06 12:59 | 51.94881 | -6.49509 | 36034 ft | 467 kts | 269° |
| 2026-05-06 13:00 | 51.94716 | -6.60055 | 36034 ft | 467 kts | 269° |
| 2026-05-06 13:00 | 51.94531 | -6.70610 | 36037 ft | 467 kts | 269° |
| 2026-05-06 13:01 | 51.94339 | -6.81062 | 36037 ft | 467 kts | 269° |
| 2026-05-06 13:01 | 51.94135 | -6.91599 | 36034 ft | 467 kts | 269° |
| 2026-05-06 13:02 | 51.93920 | -7.02154 | 36034 ft | 468 kts | 269° |
| 2026-05-06 13:02 | 51.93693 | -7.12701 | 36031 ft | 468 kts | 269° |
| 2026-05-06 13:03 | 51.93458 | -7.23251 | 36031 ft | 468 kts | 268° |
| 2026-05-06 13:03 | 51.93216 | -7.33737 | 36024 ft | 468 kts | 268° |
| 2026-05-06 13:04 | 51.92963 | -7.44294 | 36024 ft | 469 kts | 268° |
| 2026-05-06 13:04 | 51.92701 | -7.54870 | 36023 ft | 470 kts | 268° |
| 2026-05-06 13:05 | 51.92431 | -7.65463 | 36023 ft | 470 kts | 268° |
| 2026-05-06 13:05 | 51.92149 | -7.75974 | 36023 ft | 469 kts | 268° |
| 2026-05-06 13:06 | 51.91855 | -7.86555 | 36016 ft | 470 kts | 268° |
| 2026-05-06 13:06 | 51.91554 | -7.97181 | 36018 ft | 472 kts | 268° |
| 2026-05-06 13:07 | 51.91242 | -8.07747 | 36008 ft | 472 kts | 268° |
| 2026-05-06 13:07 | 51.90923 | -8.18378 | 36007 ft | 472 kts | 268° |
| 2026-05-06 13:08 | 51.90592 | -8.29003 | 36004 ft | 472 kts | 268° |
| 2026-05-06 13:08 | 51.90249 | -8.39637 | 36004 ft | 473 kts | 268° |
| 2026-05-06 13:09 | 51.89900 | -8.50238 | 36020 ft | 474 kts | 268° |
| 2026-05-06 13:09 | 51.89539 | -8.60910 | 36020 ft | 474 kts | 268° |
| 2026-05-06 13:10 | 51.89171 | -8.71522 | 36016 ft | 474 kts | 268° |
| 2026-05-06 13:10 | 51.88788 | -8.82187 | 36009 ft | 474 kts | 268° |
| 2026-05-06 13:11 | 51.88397 | -8.92889 | 36016 ft | 477 kts | 268° |
| 2026-05-06 13:11 | 51.87994 | -9.03629 | 36013 ft | 478 kts | 268° |
| 2026-05-06 13:12 | 51.87583 | -9.14375 | 36011 ft | 478 kts | 268° |
| 2026-05-06 13:12 | 51.87162 | -9.25055 | 36009 ft | 478 kts | 268° |
| 2026-05-06 13:13 | 51.86727 | -9.35807 | 36010 ft | 479 kts | 268° |
| 2026-05-06 13:13 | 51.86283 | -9.46577 | 36012 ft | 480 kts | 268° |
| 2026-05-06 13:14 | 51.85830 | -9.57354 | 36004 ft | 480 kts | 268° |
| 2026-05-06 13:14 | 51.85370 | -9.68075 | 36015 ft | 480 kts | 267° |
| 2026-05-06 13:15 | 51.84895 | -9.78868 | 36016 ft | 481 kts | 267° |
| 2026-05-06 13:15 | 51.84410 | -9.89691 | 36025 ft | 483 kts | 267° |
| 2026-05-06 13:16 | 51.83912 | -10.00536 | 36025 ft | 483 kts | 267° |
| 2026-05-06 13:16 | 51.83402 | -10.11392 | 36026 ft | 483 kts | 267° |
| 2026-05-06 13:17 | 51.82888 | -10.22159 | 36025 ft | 483 kts | 267° |
| 2026-05-06 13:17 | 51.82363 | -10.33010 | 36025 ft | 483 kts | 267° |
| 2026-05-06 13:18 | 51.81826 | -10.43852 | 36030 ft | 483 kts | 267° |
| 2026-05-06 13:18 | 51.81280 | -10.54690 | 36035 ft | 484 kts | 267° |
| 2026-05-06 13:19 | 51.80724 | -10.65468 | 36036 ft | 485 kts | 267° |
| 2026-05-06 13:19 | 51.80156 | -10.76343 | 36031 ft | 485 kts | 267° |
| 2026-05-06 13:20 | 51.79577 | -10.87238 | 36041 ft | 487 kts | 267° |
| 2026-05-06 13:20 | 51.78989 | -10.98085 | 36040 ft | 487 kts | 267° |
| 2026-05-06 13:21 | 51.78386 | -11.08995 | 36039 ft | 487 kts | 267° |
| 2026-05-06 13:21 | 51.77780 | -11.19832 | 36045 ft | 487 kts | 266° |
| 2026-05-06 13:22 | 51.77158 | -11.30758 | 36046 ft | 488 kts | 267° |
| 2026-05-06 13:22 | 51.76523 | -11.41700 | 36044 ft | 489 kts | 266° |
| 2026-05-06 13:23 | 51.75877 | -11.52653 | 36051 ft | 489 kts | 266° |
| 2026-05-06 13:23 | 51.75224 | -11.63529 | 36050 ft | 489 kts | 266° |
| 2026-05-06 13:24 | 51.74559 | -11.74482 | 36047 ft | 490 kts | 266° |
| 2026-05-06 13:24 | 51.73883 | -11.85445 | 36056 ft | 491 kts | 266° |
| 2026-05-06 13:25 | 51.73199 | -11.96361 | 36062 ft | 491 kts | 266° |
| 2026-05-06 13:25 | 51.72500 | -12.07341 | 36066 ft | 491 kts | 266° |
| 2026-05-06 13:26 | 51.71791 | -12.18319 | 36048 ft | 491 kts | 266° |
| 2026-05-06 13:26 | 51.71080 | -12.29226 | 36055 ft | 492 kts | 266° |
| 2026-05-06 13:27 | 51.70350 | -12.40208 | 36057 ft | 493 kts | 266° |
| 2026-05-06 13:27 | 51.69608 | -12.51204 | 36063 ft | 493 kts | 266° |
| 2026-05-06 13:28 | 51.68856 | -12.62182 | 36056 ft | 493 kts | 266° |
| 2026-05-06 13:28 | 51.68094 | -12.73168 | 36111 ft | 495 kts | 266° |
| 2026-05-06 13:28 | 51.67706 | -12.78688 | 36372 ft | 493 kts | 266° |
| 2026-05-06 13:29 | 51.67318 | -12.84171 | 36668 ft | 491 kts | 266° |
| 2026-05-06 13:29 | 51.66935 | -12.89566 | 36932 ft | 490 kts | 266° |
| 2026-05-06 13:29 | 51.66548 | -12.95010 | 37190 ft | 488 kts | 266° |
| 2026-05-06 13:29 | 51.66157 | -13.00442 | 37399 ft | 488 kts | 265° |
| 2026-05-06 13:30 | 51.65764 | -13.05866 | 37592 ft | 487 kts | 265° |
| 2026-05-06 13:30 | 51.65369 | -13.11284 | 37781 ft | 487 kts | 265° |
| 2026-05-06 13:30 | 51.64971 | -13.16703 | 37954 ft | 486 kts | 265° |
| 2026-05-06 13:31 | 51.64169 | -13.27530 | 38062 ft | 487 kts | 265° |
| 2026-05-06 13:31 | 51.63359 | -13.38339 | 38054 ft | 487 kts | 265° |
| 2026-05-06 13:32 | 51.62536 | -13.49174 | 38057 ft | 487 kts | 265° |
| 2026-05-06 13:32 | 51.61702 | -13.59981 | 38051 ft | 486 kts | 265° |
| 2026-05-06 13:33 | 51.60860 | -13.70781 | 38053 ft | 486 kts | 265° |
| 2026-05-06 13:33 | 51.60015 | -13.81503 | 38051 ft | 485 kts | 265° |
| 2026-05-06 13:34 | 51.59158 | -13.92286 | 38062 ft | 486 kts | 265° |
| 2026-05-06 13:34 | 51.58287 | -14.03073 | 38050 ft | 486 kts | 265° |
| 2026-05-06 13:35 | 51.57407 | -14.13856 | 38060 ft | 486 kts | 265° |
| 2026-05-06 13:35 | 51.56521 | -14.24572 | 38061 ft | 486 kts | 265° |
| 2026-05-06 13:36 | 51.55623 | -14.35323 | 38063 ft | 486 kts | 265° |
| 2026-05-06 13:36 | 51.54713 | -14.46100 | 38058 ft | 486 kts | 265° |
| 2026-05-06 13:37 | 51.53799 | -14.56794 | 38057 ft | 486 kts | 265° |
| 2026-05-06 13:37 | 51.52872 | -14.67540 | 38061 ft | 484 kts | 264° |
| 2026-05-06 13:38 | 51.51936 | -14.78250 | 38061 ft | 484 kts | 264° |
| 2026-05-06 13:38 | 51.50990 | -14.88964 | 38061 ft | 484 kts | 264° |
| 2026-05-06 13:39 | 51.50378 | -14.99691 | 38062 ft | 480 kts | 274° |
| 2026-05-06 13:39 | 51.51210 | -15.10195 | 38058 ft | 477 kts | 282° |
| 2026-05-06 13:40 | 51.52454 | -15.20661 | 38060 ft | 476 kts | 283° |
| 2026-05-06 13:40 | 51.53752 | -15.31115 | 38058 ft | 476 kts | 283° |
| 2026-05-06 13:41 | 51.55017 | -15.41537 | 38061 ft | 475 kts | 283° |
| 2026-05-06 13:41 | 51.56247 | -15.51896 | 38062 ft | 475 kts | 283° |
| 2026-05-06 13:42 | 51.57467 | -15.62332 | 38056 ft | 474 kts | 283° |
| 2026-05-06 13:42 | 51.58678 | -15.72751 | 38062 ft | 474 kts | 283° |
| 2026-05-06 13:43 | 51.59681 | -15.81420 | 38059 ft | 474 kts | 282° |
| 2026-05-06 13:43 | 51.60878 | -15.91840 | 38059 ft | 473 kts | 282° |
| 2026-05-06 13:44 | 51.62061 | -16.02267 | 38059 ft | 473 kts | 282° |